Flight Track Log - Related Links

Times and Time Zones

All times are in EDT time to prevent confusion due to time zone crossing. See the SWA286 flight status page for this flight to view local times or setup timezone preferences in your user account.

Time Position Orientation Groundspeed Altitude Reporting Facility
EDT Latitude Longitude Course Direction KTS MPH feet Rate Location/Type
Mon 05:07:51 PM 39.1000 -76.6000 142° Southeast 208 239 4,700  Level Potomac TRACON
Mon 05:08:51 PM 39.0500 -76.5333 134° Southeast 231 266 8,200 3,450 Climbing Potomac TRACON
Mon 05:09:51 PM 39.0000 -76.4833 142° Southeast 255 293 11,600 1,822 Climbing Potomac TRACON
Mon 05:12:00 PM 38.5154 -76.7131 171° South  Level FlightAware
Mon 05:12:02 PM 38.8322 -76.5697 202° Southwest 300 345 14,000  Level Washington Center
Mon 05:13:02 PM 38.7442 -76.6192 204° Southwest 327 376 16,900 2,500 Climbing Washington Center
Mon 05:14:02 PM 38.6500 -76.6764 205° Southwest 353 406 19,000 1,100 Climbing Washington Center
Mon 05:15:02 PM 38.5536 -76.7200 199° South 367 422 19,100 1,300 Climbing Washington Center
Mon 05:16:02 PM 38.4475 -76.7103 176° South 373 429 21,600 2,450 Climbing Washington Center
Mon 05:17:02 PM 38.3225 -76.6953 175° South 394 453 24,000 2,300 Climbing Washington Center
Mon 05:18:02 PM 38.1997 -76.6750 173° South 420 483 26,200 2,050 Climbing Washington Center
Mon 05:19:02 PM 38.0767 -76.6628 176° South 437 503 28,100 1,750 Climbing Washington Center
Mon 05:20:02 PM 37.9497 -76.6450 174° South 454 522 29,700 1,500 Climbing Washington Center
Mon 05:21:02 PM 37.8183 -76.6250 173° South 466 536 31,100 1,550 Climbing Washington Center
Mon 05:22:02 PM 37.6831 -76.6100 175° South 487 560 32,800 1,500 Climbing Washington Center
Mon 05:23:02 PM 37.5475 -76.5897 173° South 487 560 34,100 800 Climbing Washington Center
Mon 05:24:02 PM 37.4100 -76.5697 173° South 497 572 34,400 1,050 Climbing Washington Center
Mon 05:25:02 PM 37.2744 -76.5575 176° South 497 572 36,200 1,750 Climbing Washington Center
Mon 05:26:02 PM 37.1492 -76.5978 194° South 477 549 37,900 1,550 Climbing Washington Center
Mon 05:27:02 PM 37.0339 -76.6533 201° Southwest 461 531 39,300 1,100 Climbing Washington Center
Mon 05:28:02 PM 36.9186 -76.7089 201° Southwest 456 525 40,100 400 Climbing Washington Center
Mon 05:29:02 PM 36.8056 -76.7644 201° Southwest 446 513 40,100  Level Washington Center
Mon 05:30:02 PM 36.6922 -76.8172 200° South 441 507 40,100  Level Washington Center
Mon 05:31:02 PM 36.5792 -76.8697 200° South 441 507 40,100  Level Washington Center
Mon 05:32:02 PM 36.4658 -76.9194 199° South 434 499 40,100  Level Washington Center
Mon 05:33:02 PM 36.3547 -76.9744 202° Southwest 434 499 40,100  Level Washington Center
Mon 05:34:02 PM 36.2436 -77.0239 200° South 434 499 40,100  Level Washington Center
Mon 05:35:02 PM 36.1303 -77.0758 200° South 434 499 40,100  Level Washington Center
Mon 05:36:02 PM 36.0147 -77.1250 199° South 434 499 40,100  Level Washington Center
Mon 05:37:02 PM 35.9225 -77.1744 203° Southwest 429 494 40,100  Level Washington Center
Mon 05:38:02 PM 35.8092 -77.2236 199° South 429 494 40,100  Level Washington Center
Mon 05:39:02 PM 35.6936 -77.2750 200° South 434 499 40,100  Level Washington Center
Mon 05:40:02 PM 35.5781 -77.3261 200° South 434 499 40,100  Level Washington Center
Mon 05:41:02 PM 35.4625 -77.3797 201° Southwest 434 499 40,100  Level Washington Center
Mon 05:42:02 PM 35.3511 -77.4281 199° South 434 499 40,100  Level Washington Center
Mon 05:43:02 PM 35.2356 -77.4789 200° South 434 499 40,100  Level Washington Center
Mon 05:44:02 PM 35.1181 -77.5319 200° South 439 505 40,100  Level Washington Center
Mon 05:45:02 PM 35.0044 -77.5850 201° Southwest 439 505 40,100  Level Washington Center
Mon 05:46:02 PM 34.8908 -77.6356 200° South 434 499 40,100  Level Washington Center
Mon 05:47:02 PM 34.7794 -77.6908 202° Southwest 434 499 40,100  Level Washington Center
Mon 05:48:02 PM 34.6658 -77.7383 199° South 434 499 40,100  Level Washington Center
Mon 05:49:02 PM 34.5503 -77.7883 200° South 434 499 40,100  Level Washington Center
Mon 05:50:02 PM 34.4367 -77.8406 201° Southwest 434 499 40,100  Level Washington Center
Mon 05:51:52 PM 34.2078 -77.9186 196° South 417 480 40,100  Level Jacksonville Center
Mon 05:52:52 PM 34.0942 -77.9478 192° South 449 517 40,100  Level Jacksonville Center
Mon 05:53:52 PM 33.9744 -77.9794 192° South 449 517 40,100  Level Jacksonville Center
Mon 05:54:52 PM 33.8547 -78.0161 194° South 449 517 40,100  Level Jacksonville Center
Mon 05:55:52 PM 33.7331 -78.0531 194° South 449 517 40,100  Level Jacksonville Center
Mon 05:56:52 PM 33.6133 -78.0869 193° South 449 517 40,100  Level Jacksonville Center
Mon 05:57:52 PM 33.4936 -78.1208 193° South 449 517 40,100  Level Jacksonville Center
Mon 05:58:52 PM 33.3761 -78.1544 193° South 449 517 40,100  Level Jacksonville Center
Mon 05:59:52 PM 33.2542 -78.1883 193° South 449 517 40,100  Level Jacksonville Center
Mon 06:00:52 PM 33.1344 -78.2244 194° South 449 517 40,100  Level Jacksonville Center
Mon 06:01:52 PM 33.0147 -78.2553 192° South 449 517 40,100  Level Jacksonville Center
Mon 06:02:52 PM 32.8969 -78.2911 194° South 449 517 40,100  Level Jacksonville Center
Mon 06:03:52 PM 32.7772 -78.3269 194° South 449 517 40,100  Level Jacksonville Center
Mon 06:04:52 PM 32.6572 -78.3553 191° South 449 517 40,100  Level Jacksonville Center
Mon 06:05:52 PM 32.5353 -78.3883 193° South 449 517 40,100  Level Jacksonville Center
Mon 06:06:52 PM 32.4175 -78.4236 194° South 449 517 40,100  Level Jacksonville Center
Mon 06:07:52 PM 32.2875 -78.4669 196° South 449 517 40,100  Level Jacksonville Center
Mon 06:08:52 PM 32.1697 -78.4997 193° South 449 517 40,100  Level Jacksonville Center
Mon 06:09:52 PM 32.0539 -78.5297 192° South 444 511 40,100  Level Jacksonville Center
Mon 06:10:52 PM 31.9361 -78.5669 195° South 439 505 40,100  Level Jacksonville Center
Mon 06:11:52 PM 31.8222 -78.5969 193° South 439 505 40,100  Level Jacksonville Center
Mon 06:12:52 PM 31.7044 -78.6317 194° South 432 497 40,100  Level Jacksonville Center
Mon 06:13:52 PM 31.5867 -78.6664 194° South 432 497 40,100  Level Jacksonville Center
Mon 06:14:52 PM 31.4731 -78.7006 194° South 432 497 40,100  Level Jacksonville Center
Mon 06:15:52 PM 31.3575 -78.7447 198° South 432 497 40,100  Level Jacksonville Center
Mon 06:16:52 PM 31.2400 -78.7914 199° South 437 503 40,100  Level Jacksonville Center
Mon 06:17:52 PM 31.1267 -78.8303 196° South 431 496 40,100  Level Jacksonville Center
Mon 06:18:52 PM 31.0111 -78.8764 199° South 436 502 40,100  Level Jacksonville Center
Mon 06:19:52 PM 30.8956 -78.9175 197° South 439 505 40,100  Level Jacksonville Center
Mon 06:20:52 PM 30.7842 -78.9608 198° South 439 505 40,100  Level Jacksonville Center
Mon 06:21:52 PM 30.6664 -78.9997 196° South 433 498 40,100  Level Jacksonville Center
Mon 06:22:52 PM 30.5550 -79.0428 198° South 436 502 40,100  Level Jacksonville Center
Mon 06:23:20 PM 30.5156 -79.0558 196° South 444 511 40,100  Level Miami Center
Mon 06:24:20 PM 30.4025 -79.0967 197° South 444 511 40,100  Level Miami Center
Mon 06:25:20 PM 30.2892 -79.1375 197° South 438 504 40,100  Level Miami Center
Mon 06:26:20 PM 30.1761 -79.1783 197° South 432 497 40,100  Level Miami Center
Mon 06:27:20 PM 30.0647 -79.2214 198° South 432 497 40,100  Level Miami Center
Mon 06:28:20 PM 29.9472 -79.2739 201° Southwest 426 490 40,100  Level Miami Center
Mon 06:29:20 PM 29.8361 -79.3097 196° South 421 484 40,100  Level Miami Center
Mon 06:30:20 PM 29.7289 -79.3575 201° Southwest 437 503 40,100  Level Miami Center
Mon 06:31:20 PM 29.6136 -79.3931 195° South 432 497 40,100  Level Miami Center
Mon 06:32:20 PM 29.5022 -79.4333 197° South 422 486 40,100  Level Miami Center
Mon 06:33:20 PM 29.3911 -79.4711 197° South 422 486 40,100  Level Miami Center
Mon 06:34:20 PM 29.2778 -79.5067 195° South 427 491 40,100  Level Miami Center
Mon 06:35:20 PM 29.1664 -79.5492 198° South 427 491 40,100  Level Miami Center
Mon 06:36:20 PM 29.0531 -79.5914 198° South 427 491 40,100 -550 Level Miami Center
Mon 06:37:20 PM 28.9761 -79.6797 225° Southwest 403 464 39,000 -1,800 Descending Miami Center
Mon 06:38:20 PM 28.9033 -79.7703 227° Southwest 394 453 36,500 -2,400 Descending Miami Center
Mon 06:39:20 PM 28.8325 -79.8656 230° Southwest 394 453 34,200 -2,300 Descending Miami Center
Mon 06:40:20 PM 28.7617 -79.9583 229° Southwest 394 453 31,900 -2,150 Descending Miami Center
Mon 06:41:20 PM 28.6953 -80.0464 229° Southwest 389 448 29,900 -1,950 Descending Miami Center
Mon 06:42:20 PM 28.6350 -80.1250 229° Southwest 378 435 28,000 -2,050 Descending Miami Center
Mon 06:43:20 PM 28.5619 -80.2175 228° Southwest 370 426 25,800 -1,800 Descending Miami Center
Mon 06:44:20 PM 28.4994 -80.3006 229° Southwest 360 414 24,400 -1,150 Descending Miami Center
Mon 06:45:20 PM 28.4553 -80.4008 243° Southwest 353 406 23,500 -950 Descending Miami Center
Mon 06:46:20 PM 28.4194 -80.4942 246° West 359 413 22,500 -1,000 Descending Miami Center
Mon 06:47:20 PM 28.3772 -80.5989 245° Southwest 359 413 21,500 -1,000 Descending Miami Center
Mon 06:48:20 PM 28.3369 -80.6989 245° Southwest 359 413 20,500 -750 Descending Miami Center
Mon 06:49:20 PM 28.2967 -80.8011 246° West 359 413 20,000 -250 Descending Miami Center
Mon 06:50:20 PM 28.2561 -80.9036 246° West 359 413 20,000  Level Miami Center
Mon 06:51:20 PM 28.2136 -81.0056 245° Southwest 359 413 20,000  Level Miami Center
Mon 06:52:20 PM 28.1731 -81.1056 245° Southwest 354 407 20,000 50 Level Miami Center
Mon 06:53:20 PM 28.1306 -81.2075 245° Southwest 354 407 20,100  Climbing Miami Center
Mon 06:54:20 PM 28.0853 -81.3208 246° West 354 407 20,000 -50 Descending Miami Center
Mon 06:55:20 PM 28.0142 -81.3933 222° Southwest 339 390 20,000  Level Miami Center
Mon 06:56:20 PM 27.9200 -81.4014 184° South 357 411 20,000  Level Miami Center
Mon 06:57:20 PM 27.8194 -81.4114 185° South 368 423 20,000  Level Miami Center
Mon 06:58:20 PM 27.7067 -81.4186 183° South 373 429 20,000  Level Miami Center
Mon 06:59:20 PM 27.6039 -81.4286 185° South 368 423 20,000 -400 Level Miami Center
Mon 07:00:20 PM 27.5036 -81.4364 184° South 368 423 19,200 -1,200 Descending Miami Center
Mon 07:01:20 PM 27.4133 -81.4492 187° South 368 423 17,600 -1,800 Descending Miami Center
Mon 07:02:20 PM 27.3172 -81.4569 184° South 363 418 15,600 -1,900 Descending Miami Center
Mon 07:03:20 PM 27.2208 -81.4647 184° South 358 412 13,800 -1,800 Descending Miami Center
Mon 07:04:20 PM 27.1308 -81.4753 186° South 345 397 12,000 -1,750 Descending Miami Center
Mon 07:05:20 PM 27.0344 -81.4806 183° South 332 382 10,300 -1,000 Descending Miami Center
Mon 07:06:20 PM 26.9622 -81.4569 164° South 299 344 10,000 -150 Descending Miami Center
Mon 07:07:20 PM 26.8800 -81.4164 156° South 294 338 10,000 -350 Level Miami Center
Mon 07:08:20 PM 26.8017 -81.3831 159° South 300 345 9,300 -1,000 Descending Miami Center
Mon 07:09:20 PM 26.7200 -81.3961 188° South 291 335 8,000 -650 Descending Miami Center
Mon 07:10:20 PM 26.6567 -81.4192 198° South 267 307 8,000  Level Miami Center
Mon 07:12:00 PM 26.4771 -81.4132 197° South  Level FlightAware
Mon 07:19:00 PM 26.5333 -81.7500 318° Northwest  Level FlightAware
Mon 07:20:00 PM 26.5362 -81.7552 318° Northwest  Level Estimated
Mon 07:21:00 PM 26.5333 -81.7500 318° Northwest  Level FlightAware
Mon 07:22:00 PM 26.5362 -81.7552 318° Northwest  Level Estimated
Mon 07:23:00 PM 26.5333 -81.7500 318° Northwest  Level FlightAware
Mon 07:24:00 PM 26.5362 -81.7552 318° Northwest  Level Estimated
Mon 07:25:00 PM 26.5333 -81.7500 318° Northwest  Level FlightAware
Mon 07:26:00 PM 26.5362 -81.7552 318° Northwest  Level Estimated
Mon 07:27:00 PM 26.5333 -81.7500 318° Northwest  Level FlightAware
Mon 07:28:00 PM 26.5362 -81.7552 318° Northwest  Level Estimated
Mon 07:29:00 PM 26.5333 -81.7500 318° Northwest  Level FlightAware
Mon 07:30:00 PM 26.5362 -81.7552 318° Northwest  Level Estimated

Login

Don't have an account? Register now (free) for customized features, flight alerts, and more!